createdAt,value
2018-10-05T00:00:10.841Z,13.77
2018-10-05T00:02:38.919Z,10.93
2018-10-05T00:05:13.325Z,8.83
2018-10-05T00:07:47.828Z,8.77
2018-10-05T00:10:20.688Z,11.67
2018-10-05T00:12:48.974Z,12.37
2018-10-05T00:15:17.053Z,10.33
2018-10-05T00:17:47.995Z,11.00
2018-10-05T00:20:16.151Z,9.10
2018-10-05T00:22:51.621Z,10.03
2018-10-05T00:25:27.005Z,9.40
2018-10-05T00:28:01.517Z,10.80
2018-10-05T00:30:38.948Z,12.83
2018-10-05T00:33:12.880Z,11.90
2018-10-05T00:35:41.041Z,10.47
2018-10-05T00:38:11.908Z,10.90
2018-10-05T00:40:40.277Z,12.43
2018-10-05T00:43:08.300Z,9.30
2018-10-05T00:45:43.616Z,9.00
2018-10-05T00:48:14.506Z,9.67
2018-10-05T00:50:42.675Z,9.97
2018-10-05T00:53:15.818Z,9.67
2018-10-05T00:55:45.914Z,13.43
2018-10-05T00:58:13.952Z,10.90
2018-10-05T01:00:45.157Z,9.60
2018-10-05T01:03:13.365Z,9.67
2018-10-05T01:05:41.639Z,10.73
2018-10-05T01:08:17.117Z,11.77
2018-10-05T01:10:50.188Z,13.17
2018-10-05T01:13:18.363Z,11.40
2018-10-05T01:15:46.427Z,14.90
2018-10-05T01:18:19.295Z,13.33
2018-10-05T01:20:47.926Z,12.83
2018-10-05T01:23:16.398Z,11.30
2018-10-05T01:25:44.465Z,14.43
2018-10-05T01:28:18.996Z,11.70
2018-10-05T01:30:53.467Z,10.40
2018-10-05T01:33:26.453Z,10.53
2018-10-05T01:35:56.598Z,10.87
2018-10-05T01:38:24.779Z,9.90
2018-10-05T01:41:04.609Z,12.37
2018-10-05T01:43:32.695Z,10.73
2018-10-05T01:46:07.204Z,10.30
2018-10-05T01:51:19.386Z,14.70
2018-10-05T01:53:47.479Z,14.63
2018-10-05T01:56:20.477Z,10.63
2018-10-05T01:58:48.774Z,12.50
2018-10-05T02:01:17.030Z,13.67
2018-10-05T02:03:54.645Z,12.80
2018-10-05T02:06:22.771Z,11.90
2018-10-05T02:08:57.253Z,12.10
2018-10-05T02:11:37.155Z,11.63
2018-10-05T02:14:05.421Z,11.57
2018-10-05T02:16:33.845Z,11.13
2018-10-05T02:19:08.264Z,12.97
2018-10-05T02:21:41.662Z,9.80
2018-10-05T02:24:24.171Z,10.60
2018-10-05T02:26:52.306Z,11.43
2018-10-05T02:29:34.340Z,11.47
2018-10-05T02:32:02.694Z,11.10
2018-10-05T02:34:30.892Z,11.60
2018-10-05T02:37:10.637Z,13.27
2018-10-05T02:39:38.856Z,11.43
2018-10-05T02:42:09.825Z,12.73
2018-10-05T02:44:40.898Z,15.70
2018-10-05T02:47:09.032Z,11.20
2018-10-05T02:49:49.105Z,10.67
2018-10-05T02:52:17.598Z,15.07
2018-10-05T02:54:46.173Z,10.07
2018-10-05T02:57:16.645Z,11.93
2018-10-05T02:59:46.908Z,12.37
2018-10-05T03:02:26.521Z,12.33
2018-10-05T03:05:04.794Z,11.63
2018-10-05T03:07:32.957Z,14.23
2018-10-05T03:10:05.241Z,11.47
2018-10-05T03:12:39.748Z,8.30
2018-10-05T03:15:13.149Z,11.33
2018-10-05T03:17:47.613Z,8.23
2018-10-05T03:20:22.292Z,9.37
2018-10-05T03:22:50.378Z,9.03
2018-10-05T03:25:21.282Z,10.03
2018-10-05T03:27:49.356Z,11.97
2018-10-05T03:30:21.678Z,10.03
2018-10-05T03:32:52.071Z,10.53
2018-10-05T03:35:22.291Z,12.10
2018-10-05T03:37:50.565Z,13.03
2018-10-05T03:40:23.870Z,10.20
2018-10-05T03:43:05.786Z,12.90
2018-10-05T03:45:34.027Z,11.60
2018-10-05T03:48:02.294Z,9.70
2018-10-05T03:50:33.244Z,13.63
2018-10-05T03:53:01.623Z,13.13
2018-10-05T03:55:29.682Z,10.63
2018-10-05T03:58:01.054Z,10.63
2018-10-05T04:00:31.872Z,11.90
2018-10-05T04:03:05.477Z,13.63
2018-10-05T04:05:33.589Z,12.33
2018-10-05T04:08:07.837Z,14.37
2018-10-05T04:10:39.201Z,14.17
2018-10-05T04:13:18.037Z,15.57
2018-10-05T04:15:51.462Z,13.00
2018-10-05T04:18:22.369Z,11.47
2018-10-05T04:20:50.669Z,13.73
2018-10-05T04:23:18.821Z,12.07
2018-10-05T04:25:54.983Z,12.43
2018-10-05T04:28:30.862Z,11.03
2018-10-05T04:31:03.082Z,12.73
2018-10-05T04:33:35.494Z,14.20
2018-10-05T04:36:09.845Z,13.10
2018-10-05T04:38:41.160Z,11.77
2018-10-05T04:41:11.591Z,13.60
2018-10-05T04:43:42.157Z,12.10
2018-10-05T04:46:21.956Z,14.47
2018-10-05T04:48:55.173Z,10.73
2018-10-05T04:51:27.473Z,10.93
2018-10-05T04:54:12.592Z,13.67
2018-10-05T04:56:40.796Z,12.27
2018-10-05T04:59:12.080Z,11.97
2018-10-05T05:01:46.825Z,10.37
2018-10-05T05:04:14.938Z,13.50
2018-10-05T05:06:54.663Z,12.23
2018-10-05T05:09:27.633Z,15.87
2018-10-05T05:12:07.776Z,11.67
2018-10-05T05:14:35.868Z,13.33
2018-10-05T05:17:10.606Z,14.30
2018-10-05T05:19:38.752Z,12.10
2018-10-05T05:22:09.785Z,19.90
2018-10-05T05:24:40.814Z,16.93
2018-10-05T05:27:13.225Z,14.37
2018-10-05T05:29:44.243Z,13.27
2018-10-05T05:32:14.381Z,13.20
2018-10-05T05:34:42.546Z,15.60
2018-10-05T05:37:14.934Z,13.43
2018-10-05T05:39:45.737Z,12.23
2018-10-05T05:42:16.860Z,13.27
2018-10-05T05:44:49.344Z,12.53
2018-10-05T05:47:21.757Z,10.23
2018-10-05T05:49:53.199Z,11.40
2018-10-05T05:52:25.310Z,12.13
2018-10-05T05:54:53.482Z,14.00
2018-10-05T05:57:24.466Z,12.77
2018-10-05T05:59:54.969Z,11.30
2018-10-05T06:02:26.246Z,10.60
2018-10-05T06:04:54.638Z,10.63
2018-10-05T06:07:22.913Z,11.17
2018-10-05T06:10:00.228Z,10.83
2018-10-05T06:15:08.014Z,10.40
2018-10-05T06:17:41.192Z,8.20
2018-10-05T06:20:12.330Z,10.80
2018-10-05T06:22:40.705Z,9.80
2018-10-05T06:25:17.357Z,9.77
2018-10-05T06:27:45.558Z,12.10
2018-10-05T06:30:19.816Z,12.13
2018-10-05T06:32:50.789Z,10.10
2018-10-05T06:35:18.952Z,11.13
2018-10-05T06:37:51.919Z,11.13
2018-10-05T06:40:20.251Z,10.67
2018-10-05T06:42:48.312Z,11.03
2018-10-05T06:45:19.258Z,9.77
2018-10-05T06:47:47.459Z,9.67
2018-10-05T06:50:17.399Z,8.57
2018-10-05T06:52:49.848Z,9.13
2018-10-05T06:55:18.151Z,9.57
2018-10-05T06:57:46.476Z,15.70
2018-10-05T07:00:20.794Z,11.40
2018-10-05T07:02:58.296Z,10.07
2018-10-05T07:05:30.578Z,10.77
2018-10-05T07:08:07.208Z,9.47
2018-10-05T07:10:39.571Z,7.50
2018-10-05T07:13:13.913Z,9.73
2018-10-05T07:15:45.114Z,9.37
2018-10-05T07:18:25.636Z,8.73
2018-10-05T07:20:57.786Z,8.17
2018-10-05T07:23:26.274Z,9.97
2018-10-05T07:25:54.541Z,8.63
2018-10-05T07:28:22.759Z,9.93
2018-10-05T07:30:57.130Z,7.63
2018-10-05T07:33:31.585Z,13.93
2018-10-05T07:36:04.540Z,8.53
2018-10-05T07:38:32.637Z,8.90
2018-10-05T07:41:09.491Z,10.77
2018-10-05T07:43:37.974Z,7.47
2018-10-05T07:46:06.250Z,8.97
2018-10-05T07:48:34.309Z,11.13
2018-10-05T07:51:08.685Z,8.87
2018-10-05T07:53:48.599Z,6.47
2018-10-05T07:56:16.762Z,9.77
2018-10-05T07:58:56.506Z,7.93
2018-10-05T08:01:24.609Z,8.80
2018-10-05T08:03:56.810Z,9.63
2018-10-05T08:06:35.261Z,15.93
2018-10-05T08:09:15.066Z,6.67
2018-10-05T08:11:51.783Z,5.93
2018-10-05T08:14:19.878Z,6.90
2018-10-05T08:16:48.055Z,7.63
2018-10-05T08:19:19.139Z,8.10
2018-10-05T08:21:47.266Z,9.90
2018-10-05T08:24:29.328Z,7.70
2018-10-05T08:26:59.483Z,5.53
2018-10-05T08:29:27.709Z,5.87
2018-10-05T08:32:09.631Z,8.83
2018-10-05T08:34:37.934Z,8.07
2018-10-05T08:37:06.196Z,7.90
2018-10-05T08:39:39.517Z,6.33
2018-10-05T08:42:15.125Z,5.77
2018-10-05T08:44:46.209Z,7.50
2018-10-05T08:47:21.102Z,6.53
2018-10-05T08:49:49.355Z,5.70
2018-10-05T08:52:24.900Z,7.20
2018-10-05T08:55:02.434Z,5.83
2018-10-05T08:57:30.995Z,6.80
2018-10-05T08:59:59.224Z,6.43
2018-10-05T09:02:32.194Z,7.77
2018-10-05T09:05:00.326Z,7.63
2018-10-05T09:07:32.517Z,5.60
2018-10-05T09:10:07.921Z,7.10
2018-10-05T09:12:42.325Z,5.47
2018-10-05T09:15:14.553Z,6.10
2018-10-05T09:17:42.814Z,3.83
2018-10-05T09:20:10.898Z,6.30
2018-10-05T09:22:45.133Z,6.03
2018-10-05T09:25:16.382Z,6.53
2018-10-05T09:27:44.404Z,7.30
2018-10-05T09:30:15.458Z,5.20
2018-10-05T09:32:43.648Z,6.43
2018-10-05T09:35:11.680Z,8.30
2018-10-05T09:37:44.159Z,5.57
2018-10-05T09:40:15.407Z,4.83
2018-10-05T09:42:45.499Z,5.60
2018-10-05T09:45:16.403Z,6.23
2018-10-05T09:47:46.691Z,7.90
2018-10-05T09:50:14.915Z,5.63
2018-10-05T09:52:48.221Z,6.87
2018-10-05T09:55:21.861Z,5.83
2018-10-05T09:57:55.398Z,5.37
2018-10-05T10:00:28.875Z,5.87
2018-10-05T10:02:59.901Z,4.93
2018-10-05T10:05:30.820Z,6.53
2018-10-05T10:08:02.626Z,6.17
2018-10-05T10:10:31.326Z,7.30
2018-10-05T10:13:00.475Z,5.63
2018-10-05T10:18:03.993Z,3.87
2018-10-05T10:20:37.234Z,2.97
2018-10-05T10:23:08.798Z,5.87
2018-10-05T10:25:47.092Z,3.80
2018-10-05T10:28:18.084Z,6.90
2018-10-05T10:30:46.466Z,4.90
2018-10-05T10:33:14.559Z,7.03
2018-10-05T10:35:45.444Z,7.20
2018-10-05T10:38:13.700Z,4.90
2018-10-05T10:40:49.095Z,4.83
2018-10-05T10:43:24.571Z,6.20
2018-10-05T10:45:57.561Z,4.53
2018-10-05T10:48:25.717Z,6.17
2018-10-05T10:50:53.868Z,5.07
2018-10-05T10:53:27.057Z,5.83
2018-10-05T10:55:58.234Z,5.37
2018-10-05T10:58:26.270Z,2.93
2018-10-05T11:00:57.215Z,4.17
2018-10-05T11:03:25.301Z,4.10
2018-10-05T11:05:59.704Z,6.87
2018-10-05T11:08:30.617Z,5.40
2018-10-05T11:10:58.762Z,5.93
2018-10-05T11:13:29.646Z,4.87
2018-10-05T11:15:57.797Z,7.37
2018-10-05T11:18:28.152Z,4.57
2018-10-05T11:20:58.396Z,8.87
2018-10-05T11:23:28.821Z,4.67
2018-10-05T11:25:57.089Z,5.53
2018-10-05T11:28:25.162Z,6.17
2018-10-05T11:30:58.330Z,5.77
2018-10-05T11:33:28.473Z,5.97
2018-10-05T11:35:56.600Z,3.50
2018-10-05T11:38:27.472Z,4.13
2018-10-05T11:40:55.601Z,5.93
2018-10-05T11:43:26.579Z,4.03
2018-10-05T11:45:54.958Z,5.23
2018-10-05T11:48:25.259Z,3.00
2018-10-05T11:50:58.413Z,5.93
2018-10-05T11:53:33.911Z,4.20
2018-10-05T11:56:04.981Z,4.23
2018-10-05T11:58:33.018Z,2.83
2018-10-05T12:01:04.141Z,6.50
2018-10-05T12:03:43.994Z,3.27
2018-10-05T12:06:16.413Z,6.53
2018-10-05T12:08:50.199Z,6.27
2018-10-05T12:11:18.366Z,4.37
2018-10-05T12:13:51.329Z,3.83
2018-10-05T12:16:21.576Z,3.90
2018-10-05T12:18:52.616Z,3.50
2018-10-05T12:21:23.022Z,3.93
2018-10-05T12:24:03.058Z,5.40
2018-10-05T12:26:31.402Z,6.67
2018-10-05T12:28:59.545Z,3.93
2018-10-05T12:31:32.615Z,4.57
2018-10-05T12:34:02.762Z,3.57
2018-10-05T12:36:30.905Z,5.37
2018-10-05T12:39:07.464Z,5.03
2018-10-05T12:41:40.452Z,6.17
2018-10-05T12:44:10.705Z,4.27
2018-10-05T12:46:38.797Z,6.10
2018-10-05T12:49:13.092Z,3.50
2018-10-05T12:51:45.361Z,5.67
2018-10-05T12:54:15.562Z,6.60
2018-10-05T12:56:43.878Z,4.37
2018-10-05T12:59:14.683Z,3.80
2018-10-05T13:01:42.809Z,2.63
2018-10-05T13:04:17.392Z,3.63
2018-10-05T13:06:45.475Z,4.00
2018-10-05T13:09:16.810Z,2.57
2018-10-05T13:11:55.123Z,2.33
2018-10-05T13:14:23.190Z,1.80
2018-10-05T13:16:58.489Z,3.20
2018-10-05T13:19:32.510Z,4.10
2018-10-05T13:22:00.705Z,3.23
2018-10-05T13:24:28.891Z,4.57
2018-10-05T13:27:01.901Z,7.23
2018-10-05T13:29:34.266Z,7.00
2018-10-05T13:32:02.336Z,2.97
2018-10-05T13:34:33.429Z,4.03
2018-10-05T13:37:04.629Z,3.83
2018-10-05T13:39:32.855Z,3.17
2018-10-05T13:42:10.586Z,4.03
2018-10-05T13:44:38.699Z,4.47
2018-10-05T13:47:13.144Z,4.60
2018-10-05T13:49:43.889Z,3.87
2018-10-05T13:52:12.004Z,3.43
2018-10-05T13:54:42.942Z,3.40
2018-10-05T13:57:13.020Z,4.27
2018-10-05T13:59:45.102Z,4.13
2018-10-05T14:02:13.418Z,4.17
2018-10-05T14:04:41.574Z,3.53
2018-10-05T14:07:16.277Z,5.97
2018-10-05T14:09:44.393Z,4.60
2018-10-05T14:12:16.516Z,5.63
2018-10-05T14:14:44.709Z,6.73
2018-10-05T14:17:12.891Z,4.17
2018-10-05T14:19:44.369Z,2.57
2018-10-05T14:22:15.255Z,3.90
2018-10-05T14:24:45.451Z,5.97
2018-10-05T14:27:13.686Z,5.97
2018-10-05T14:29:49.271Z,3.17
2018-10-05T14:32:20.350Z,3.53
2018-10-05T14:34:48.602Z,8.03
2018-10-05T14:37:16.885Z,6.57
2018-10-05T14:39:56.711Z,5.60
2018-10-05T14:42:25.090Z,4.00
2018-10-05T14:44:53.223Z,4.40
2018-10-05T14:47:27.785Z,3.93
2018-10-05T14:52:39.541Z,4.47
2018-10-05T14:55:12.483Z,5.57
2018-10-05T14:57:40.853Z,7.67
2018-10-05T15:00:08.969Z,3.87
2018-10-05T15:02:43.394Z,8.17
2018-10-05T15:05:14.206Z,5.77
2018-10-05T15:07:42.331Z,6.30
2018-10-05T15:10:13.632Z,4.47
2018-10-05T15:12:44.712Z,4.90
2018-10-05T15:15:12.945Z,7.90
2018-10-05T15:17:49.310Z,4.23
2018-10-05T15:20:22.653Z,3.03
2018-10-05T15:22:53.436Z,4.60
2018-10-05T15:25:21.507Z,6.37
2018-10-05T15:27:52.675Z,6.07
2018-10-05T15:30:20.725Z,4.90
2018-10-05T15:32:55.283Z,6.53
2018-10-05T15:35:26.265Z,5.23
2018-10-05T15:38:02.334Z,4.90
2018-10-05T15:40:30.405Z,5.73
2018-10-05T15:43:01.557Z,6.20
2018-10-05T15:45:32.574Z,6.73
2018-10-05T15:48:07.286Z,5.10
2018-10-05T15:50:35.399Z,4.13
2018-10-05T15:53:08.547Z,6.73
2018-10-05T15:55:38.723Z,2.50
2018-10-05T15:58:06.863Z,6.90
2018-10-05T16:00:42.807Z,6.60
2018-10-05T16:03:11.139Z,3.93
2018-10-05T16:05:39.320Z,3.87
2018-10-05T16:08:12.337Z,6.03
2018-10-05T16:10:42.724Z,5.67
2018-10-05T16:13:10.759Z,4.73
2018-10-05T16:15:43.500Z,5.30
2018-10-05T16:18:20.221Z,3.77
2018-10-05T16:20:48.350Z,7.23
2018-10-05T16:23:16.678Z,3.53
2018-10-05T16:25:51.305Z,4.37
2018-10-05T16:28:19.474Z,5.97
2018-10-05T16:30:51.890Z,8.40
2018-10-05T16:33:20.160Z,5.10
2018-10-05T16:35:58.742Z,4.57
2018-10-05T16:38:34.083Z,6.33
2018-10-05T16:41:07.281Z,3.73
2018-10-05T16:43:35.451Z,3.17
2018-10-05T16:46:06.263Z,5.43
2018-10-05T16:48:34.662Z,6.80
2018-10-05T16:51:02.805Z,3.70
2018-10-05T16:53:33.905Z,3.70
2018-10-05T16:56:05.022Z,3.97
2018-10-05T16:58:33.218Z,5.97
2018-10-05T17:01:07.715Z,4.53
2018-10-05T17:03:44.553Z,4.57
2018-10-05T17:06:12.691Z,7.53
2018-10-05T17:08:47.709Z,7.00
2018-10-05T17:11:17.840Z,11.83
2018-10-05T17:13:46.557Z,3.43
2018-10-05T17:16:17.792Z,4.50
2018-10-05T17:18:46.040Z,9.87
2018-10-05T17:21:20.461Z,8.83
2018-10-05T17:23:51.189Z,7.20
2018-10-05T17:26:19.271Z,11.43
2018-10-05T17:28:52.434Z,7.70
2018-10-05T17:31:23.540Z,8.33
2018-10-05T17:33:51.860Z,8.67
2018-10-05T17:36:22.918Z,7.03
2018-10-05T17:38:53.033Z,7.00
2018-10-05T17:41:21.109Z,6.63
2018-10-05T17:44:01.596Z,9.43
2018-10-05T17:46:35.545Z,7.13
2018-10-05T17:49:03.894Z,5.13
2018-10-05T17:51:32.101Z,7.87
2018-10-05T17:54:03.075Z,11.70
2018-10-05T17:56:31.137Z,7.07
2018-10-05T17:59:06.439Z,8.93
2018-10-05T18:01:49.041Z,9.07
2018-10-05T18:04:22.554Z,7.87
2018-10-05T18:06:50.636Z,7.47
2018-10-05T18:09:21.905Z,8.87
2018-10-05T18:11:51.914Z,8.67
2018-10-05T18:14:25.072Z,9.57
2018-10-05T18:16:57.322Z,10.50
2018-10-05T18:19:28.514Z,8.30
2018-10-05T18:21:56.783Z,7.83
2018-10-05T18:24:29.763Z,7.47
2018-10-05T18:26:57.929Z,7.77
2018-10-05T18:29:25.990Z,6.07
2018-10-05T18:31:59.245Z,6.90
2018-10-05T18:34:29.420Z,10.67
2018-10-05T18:36:57.582Z,9.17
2018-10-05T18:39:32.187Z,10.73
2018-10-05T18:42:06.609Z,10.83
2018-10-05T18:44:40.559Z,11.90
2018-10-05T18:47:10.978Z,10.30
2018-10-05T18:49:42.126Z,7.33
2018-10-05T18:52:10.409Z,10.80
2018-10-05T18:54:45.626Z,11.87
2018-10-05T18:57:17.807Z,12.80
2018-10-05T18:59:46.111Z,14.67
2018-10-05T19:02:15.239Z,15.07
2018-10-05T19:04:48.351Z,10.97
2018-10-05T19:07:18.477Z,9.77
2018-10-05T19:09:46.618Z,6.70
2018-10-05T19:12:17.498Z,7.23
2018-10-05T19:14:45.611Z,6.87
2018-10-05T19:17:27.675Z,9.53
2018-10-05T19:19:58.121Z,9.73
2018-10-05T19:22:26.374Z,7.13
2018-10-05T19:24:54.525Z,7.13
2018-10-05T19:27:27.073Z,8.70
2018-10-05T19:30:01.854Z,6.93
2018-10-05T19:32:29.919Z,7.27
2018-10-05T19:35:04.289Z,8.37
2018-10-05T19:37:39.705Z,7.07
2018-10-05T19:40:10.621Z,6.13
2018-10-05T19:42:38.797Z,7.77
2018-10-05T19:45:07.563Z,6.47
2018-10-05T19:47:35.701Z,7.17
2018-10-05T19:52:44.794Z,6.97
2018-10-05T19:55:17.071Z,8.87
2018-10-05T19:57:51.335Z,8.80
2018-10-05T20:00:29.499Z,8.03
2018-10-05T20:02:57.793Z,7.63
2018-10-05T20:05:25.879Z,10.00
2018-10-05T20:08:00.370Z,7.07
2018-10-05T20:10:34.994Z,7.33
2018-10-05T20:13:07.234Z,12.70
2018-10-05T20:15:42.458Z,9.03
2018-10-05T20:18:13.638Z,12.00
2018-10-05T20:20:41.636Z,12.37
2018-10-05T20:23:12.659Z,8.80
2018-10-05T20:25:40.969Z,9.17
2018-10-05T20:28:09.217Z,9.47
2018-10-05T20:30:40.241Z,8.10
2018-10-05T20:33:08.729Z,10.50
2018-10-05T20:35:37.030Z,9.47
2018-10-05T20:38:05.070Z,7.93
2018-10-05T20:40:38.171Z,10.90
2018-10-05T20:43:06.371Z,8.90
2018-10-05T20:45:34.449Z,9.03
2018-10-05T20:48:05.756Z,10.70
2018-10-05T20:50:36.080Z,11.23
2018-10-05T20:53:04.250Z,8.60
2018-10-05T20:55:41.921Z,9.43
2018-10-05T20:58:10.122Z,8.23
2018-10-05T21:00:44.747Z,8.07
2018-10-05T21:03:12.861Z,6.90
2018-10-05T21:05:43.877Z,7.93
2018-10-05T21:08:11.954Z,9.47
2018-10-05T21:10:44.308Z,6.47
2018-10-05T21:13:15.189Z,10.73
2018-10-05T21:15:43.178Z,7.67
2018-10-05T21:18:15.225Z,8.90
2018-10-05T21:20:43.454Z,8.73
2018-10-05T21:23:16.646Z,7.13
2018-10-05T21:25:47.560Z,7.23
2018-10-05T21:28:15.716Z,8.33
2018-10-05T21:30:50.274Z,7.47
2018-10-05T21:33:25.190Z,7.00
2018-10-05T21:35:53.151Z,8.33
2018-10-05T21:38:27.306Z,8.50
2018-10-05T21:41:07.342Z,7.97
2018-10-05T21:43:35.719Z,9.97
2018-10-05T21:46:03.819Z,8.17
2018-10-05T21:48:44.227Z,8.70
2018-10-05T21:51:18.636Z,6.37
2018-10-05T21:53:53.011Z,7.07
2018-10-05T21:56:24.090Z,5.73
2018-10-05T21:58:52.274Z,6.77
2018-10-05T22:01:27.027Z,7.70
2018-10-05T22:03:55.104Z,6.10
2018-10-05T22:06:26.247Z,7.73
2018-10-05T22:08:56.463Z,7.63
2018-10-05T22:11:24.744Z,9.47
2018-10-05T22:14:00.799Z,10.30
2018-10-05T22:16:33.976Z,9.87
2018-10-05T22:19:02.476Z,8.53
2018-10-05T22:21:30.538Z,8.90
2018-10-05T22:24:03.069Z,8.33
2018-10-05T22:26:34.121Z,9.83
2018-10-05T22:29:05.544Z,9.67
2018-10-05T22:31:35.730Z,9.10
2018-10-05T22:34:03.910Z,9.47
2018-10-05T22:36:40.170Z,10.20
2018-10-05T22:39:13.382Z,5.43
2018-10-05T22:41:43.503Z,7.43
2018-10-05T22:44:11.684Z,11.20
2018-10-05T22:46:46.904Z,7.77
2018-10-05T22:49:26.838Z,10.17
2018-10-05T22:51:54.996Z,7.20
2018-10-05T22:54:28.487Z,7.23
2018-10-05T22:56:59.505Z,11.47
2018-10-05T22:59:30.306Z,8.40
2018-10-05T23:02:06.354Z,9.53
2018-10-05T23:04:34.411Z,6.50
2018-10-05T23:07:09.248Z,7.17
2018-10-05T23:09:37.288Z,7.03
2018-10-05T23:12:10.409Z,9.40
2018-10-05T23:14:41.437Z,6.70
2018-10-05T23:17:13.777Z,12.27
2018-10-05T23:19:45.849Z,8.23
2018-10-05T23:22:31.030Z,6.83
2018-10-05T23:24:59.277Z,5.03
2018-10-05T23:27:27.616Z,7.23
2018-10-05T23:30:04.411Z,8.90
2018-10-05T23:32:32.659Z,6.17
2018-10-05T23:35:04.986Z,6.80
2018-10-05T23:37:40.114Z,6.87
2018-10-05T23:40:20.058Z,9.47
2018-10-05T23:42:48.201Z,8.17
2018-10-05T23:45:22.848Z,5.93
2018-10-05T23:47:53.683Z,5.50
2018-10-05T23:50:21.722Z,8.80
2018-10-05T23:52:52.864Z,9.30
2018-10-05T23:55:23.037Z,8.57
2018-10-05T23:57:51.173Z,5.70
